createdAt,value
2019-01-19T00:02:51.463Z,101306.09
2019-01-19T00:05:59.830Z,101296.58
2019-01-19T00:12:07.712Z,101287.60
2019-01-19T00:14:36.299Z,101284.81
2019-01-19T00:17:44.629Z,101283.19
2019-01-19T00:20:52.979Z,101281.05
2019-01-19T00:24:01.317Z,101276.42
2019-01-19T00:27:09.675Z,101278.55
2019-01-19T00:30:18.081Z,101277.63
2019-01-19T00:33:25.115Z,101272.00
2019-01-19T00:36:33.515Z,101267.63
2019-01-19T00:39:40.808Z,101275.25
2019-01-19T00:42:49.135Z,101265.80
2019-01-19T00:45:56.409Z,101268.38
2019-01-19T00:49:04.749Z,101266.83
2019-01-19T00:52:11.788Z,101267.75
2019-01-19T00:55:20.134Z,101269.75
2019-01-19T00:58:27.191Z,101267.30
2019-01-19T01:01:35.541Z,101273.13
2019-01-19T01:04:44.172Z,101265.66
2019-01-19T01:07:31.646Z,101267.08
2019-01-19T01:10:38.653Z,101276.12
2019-01-19T01:13:45.775Z,101272.00
2019-01-19T01:16:54.125Z,101271.55
2019-01-19T01:20:02.547Z,101266.78
2019-01-19T01:23:10.861Z,101269.29
2019-01-19T01:26:19.274Z,101259.98
2019-01-19T01:29:26.289Z,101266.45
2019-01-19T01:32:34.647Z,101258.11
2019-01-19T01:35:43.063Z,101263.98
2019-01-19T01:38:51.678Z,101262.35
2019-01-19T01:41:58.723Z,101262.02
2019-01-19T01:47:56.107Z,101263.46
2019-01-19T01:51:04.435Z,101247.66
2019-01-19T01:54:12.870Z,101251.16
2019-01-19T01:56:41.166Z,101252.79
2019-01-19T01:59:48.223Z,101249.67
2019-01-19T02:02:56.552Z,101250.54
2019-01-19T02:06:03.572Z,101246.20
2019-01-19T02:09:11.894Z,101249.83
2019-01-19T02:12:19.000Z,101242.20
2019-01-19T02:15:27.599Z,101243.16
2019-01-19T02:18:36.260Z,101251.07
2019-01-19T02:21:44.586Z,101235.72
2019-01-19T02:24:52.946Z,101241.84
2019-01-19T02:27:42.151Z,101241.39
2019-01-19T02:30:49.189Z,101239.83
2019-01-19T02:33:56.196Z,101242.99
2019-01-19T02:37:04.572Z,101237.03
2019-01-19T02:40:12.954Z,101229.66
2019-01-19T02:43:21.381Z,101226.08
2019-01-19T02:46:30.020Z,101223.75
2019-01-19T02:49:37.263Z,101220.59
2019-01-19T02:52:45.610Z,101222.27
2019-01-19T02:55:53.006Z,101221.35
2019-01-19T02:58:42.800Z,101212.46
2019-01-19T03:01:49.804Z,101213.80
2019-01-19T03:04:58.152Z,101217.88
2019-01-19T03:11:19.590Z,101218.95
2019-01-19T03:14:28.182Z,101213.06
2019-01-19T03:17:35.204Z,101212.35
2019-01-19T03:20:42.210Z,101211.25
2019-01-19T03:23:49.238Z,101204.96
2019-01-19T03:26:56.513Z,101202.57
2019-01-19T03:30:04.877Z,101199.61
2019-01-19T03:33:11.902Z,101197.29
2019-01-19T03:36:18.933Z,101197.21
2019-01-19T03:39:27.349Z,101201.88
2019-01-19T03:42:34.369Z,101200.13
2019-01-19T03:45:41.408Z,101198.05
2019-01-19T03:48:49.993Z,101196.69
2019-01-19T03:51:57.035Z,101200.19
2019-01-19T03:55:05.413Z,101190.35
2019-01-19T03:58:13.877Z,101191.27
2019-01-19T04:01:20.916Z,101187.39
2019-01-19T04:04:27.944Z,101184.47
2019-01-19T04:07:36.367Z,101183.10
2019-01-19T04:10:44.746Z,101183.06
2019-01-19T04:13:51.814Z,101183.94
2019-01-19T04:17:00.122Z,101179.23
2019-01-19T04:20:08.477Z,101175.44
2019-01-19T04:22:36.770Z,101179.34
2019-01-19T04:25:45.428Z,101179.87
2019-01-19T04:31:02.714Z,101175.55
2019-01-19T04:33:31.007Z,101169.93
2019-01-19T04:35:59.342Z,101169.48
2019-01-19T04:38:27.642Z,101166.97
2019-01-19T04:40:55.939Z,101168.50
2019-01-19T04:43:43.383Z,101166.11
2019-01-19T04:49:00.734Z,101166.53
2019-01-19T04:51:29.054Z,101165.13
2019-01-19T04:53:57.361Z,101167.55
2019-01-19T04:56:25.651Z,101161.39
2019-01-19T04:58:54.236Z,101161.84
2019-01-19T05:01:22.524Z,101157.00
2019-01-19T05:03:50.827Z,101157.57
2019-01-19T05:06:20.406Z,101160.15
2019-01-19T05:08:49.164Z,101162.16
2019-01-19T05:11:36.852Z,101155.20
2019-01-19T05:14:45.179Z,101161.55
2019-01-19T05:17:13.499Z,101156.19
2019-01-19T05:19:41.806Z,101153.65
2019-01-19T05:22:29.266Z,101150.95
2019-01-19T05:24:57.574Z,101157.81
2019-01-19T05:27:25.861Z,101150.45
2019-01-19T05:29:54.182Z,101148.66
2019-01-19T05:40:41.434Z,101146.38
2019-01-19T05:43:09.720Z,101139.50
2019-01-19T05:45:38.026Z,101136.38
2019-01-19T05:48:06.331Z,101142.00
2019-01-19T05:50:34.638Z,101144.97
2019-01-19T05:53:02.945Z,101135.55
2019-01-19T05:55:31.236Z,101135.75
2019-01-19T05:57:59.556Z,101139.73
2019-01-19T06:00:47.308Z,101132.49
2019-01-19T06:03:15.624Z,101131.28
2019-01-19T06:08:31.326Z,101135.20
2019-01-19T06:10:59.946Z,101139.86
2019-01-19T06:13:28.284Z,101137.61
2019-01-19T06:15:56.906Z,101137.20
2019-01-19T06:18:44.350Z,101133.28
2019-01-19T06:24:01.631Z,101138.23
2019-01-19T06:26:29.937Z,101136.56
2019-01-19T06:28:58.261Z,101129.39
2019-01-19T06:31:26.553Z,101140.09
2019-01-19T06:33:55.185Z,101136.11
2019-01-19T06:36:23.511Z,101140.81
2019-01-19T06:38:52.153Z,101136.56
2019-01-19T06:41:20.478Z,101138.35
2019-01-19T06:43:48.785Z,101139.64
2019-01-19T06:46:36.477Z,101137.06
2019-01-19T06:49:44.822Z,101133.64
2019-01-19T06:52:32.509Z,101134.09
2019-01-19T06:55:00.805Z,101135.97
2019-01-19T06:57:29.121Z,101140.22
2019-01-19T06:59:57.718Z,101132.09
2019-01-19T07:02:26.045Z,101142.80
2019-01-19T07:04:54.332Z,101138.92
2019-01-19T07:07:22.634Z,101144.55
2019-01-19T07:12:25.229Z,101139.95
2019-01-19T07:15:12.658Z,101142.58
2019-01-19T07:18:00.420Z,101144.40
2019-01-19T07:21:08.776Z,101147.59
2019-01-19T07:23:37.088Z,101152.23
2019-01-19T07:28:58.223Z,101154.77
2019-01-19T07:31:46.171Z,101154.39
2019-01-19T07:34:14.461Z,101153.02
2019-01-19T07:36:42.767Z,101146.50
2019-01-19T07:39:11.400Z,101159.25
2019-01-19T07:41:39.699Z,101156.59
2019-01-19T07:44:27.353Z,101159.13
2019-01-19T07:49:44.651Z,101157.31
2019-01-19T07:55:00.549Z,101150.70
2019-01-19T07:58:08.887Z,101156.59
2019-01-19T08:00:56.814Z,101154.27
2019-01-19T08:03:44.298Z,101155.83
2019-01-19T08:06:12.623Z,101159.95
2019-01-19T08:08:40.926Z,101163.41
2019-01-19T08:11:09.226Z,101162.12
2019-01-19T08:13:37.549Z,101165.41
2019-01-19T08:16:05.843Z,101166.13
2019-01-19T08:18:34.171Z,101163.93
2019-01-19T08:21:02.779Z,101168.59
2019-01-19T08:23:31.112Z,101175.44
2019-01-19T08:25:59.411Z,101169.31
2019-01-19T08:28:47.362Z,101166.28
2019-01-19T08:31:35.314Z,101173.91
2019-01-19T08:34:22.999Z,101166.91
2019-01-19T08:36:51.622Z,101171.63
2019-01-19T08:41:58.999Z,101167.45
2019-01-19T08:44:46.639Z,101163.50
2019-01-19T08:47:34.357Z,101168.16
2019-01-19T08:50:02.652Z,101167.13
2019-01-19T08:52:50.309Z,101163.39
2019-01-19T08:58:25.291Z,101165.28
2019-01-19T09:00:53.930Z,101162.45
2019-01-19T09:03:22.266Z,101164.33
2019-01-19T09:05:50.559Z,101168.84
2019-01-19T09:08:19.185Z,101162.20
2019-01-19T09:11:07.317Z,101158.00
2019-01-19T09:13:35.903Z,101159.50
2019-01-19T09:16:44.254Z,101159.16
2019-01-19T09:19:31.940Z,101156.70
2019-01-19T09:22:00.241Z,101159.19
2019-01-19T09:27:17.504Z,101164.75
2019-01-19T09:29:45.809Z,101163.49
2019-01-19T09:34:49.555Z,101165.55
2019-01-19T09:37:17.924Z,101164.73
2019-01-19T09:40:05.535Z,101164.88
2019-01-19T09:42:53.220Z,101167.85
2019-01-19T09:45:21.523Z,101174.51
2019-01-19T09:47:49.832Z,101165.99
2019-01-19T09:50:58.167Z,101173.59
2019-01-19T09:53:46.068Z,101168.68
2019-01-19T09:56:33.721Z,101174.84
2019-01-19T09:59:02.322Z,101167.40
2019-01-19T10:01:50.273Z,101171.59
2019-01-19T10:04:37.758Z,101166.20
2019-01-19T10:07:06.054Z,101162.12
2019-01-19T10:09:34.640Z,101160.97
2019-01-19T10:12:22.395Z,101166.41
2019-01-19T10:14:50.714Z,101170.44
2019-01-19T10:17:38.443Z,101162.20
2019-01-19T10:20:46.862Z,101161.32
2019-01-19T10:23:34.284Z,101155.73
2019-01-19T10:26:21.704Z,101156.83
2019-01-19T10:31:38.970Z,101157.89
2019-01-19T10:34:26.639Z,101155.76
2019-01-19T10:36:54.938Z,101152.47
2019-01-19T10:39:23.241Z,101151.72
2019-01-19T10:41:51.538Z,101142.83
2019-01-19T10:46:54.183Z,101137.25
2019-01-19T10:49:22.506Z,101136.27
2019-01-19T10:51:50.785Z,101139.64
2019-01-19T10:54:19.092Z,101133.59
2019-01-19T10:56:47.652Z,101129.31
2019-01-19T10:59:16.239Z,101133.52
2019-01-19T11:01:44.555Z,101127.96
2019-01-19T11:04:32.221Z,101120.34
2019-01-19T11:07:00.523Z,101119.81
2019-01-19T11:09:48.273Z,101119.35
2019-01-19T11:15:09.891Z,101110.19
2019-01-19T11:17:38.484Z,101111.27
2019-01-19T11:20:47.050Z,101100.28
2019-01-19T11:23:15.363Z,101104.08
2019-01-19T11:26:03.022Z,101098.98
2019-01-19T11:28:31.320Z,101095.37
2019-01-19T11:31:18.952Z,101083.27
2019-01-19T11:33:47.270Z,101088.20
2019-01-19T11:36:35.195Z,101085.67
2019-01-19T11:42:16.888Z,101082.30
2019-01-19T11:44:45.527Z,101079.29
2019-01-19T11:47:13.818Z,101073.52
2019-01-19T11:49:42.143Z,101068.27
2019-01-19T11:57:36.812Z,101055.97
2019-01-19T12:00:45.146Z,101053.52
2019-01-19T12:03:13.707Z,101049.42
2019-01-19T12:08:40.671Z,101042.94
2019-01-19T12:11:08.967Z,101034.13
2019-01-19T12:13:37.258Z,101036.91
2019-01-19T12:16:05.648Z,101031.25
2019-01-19T12:24:15.847Z,101027.73
2019-01-19T12:29:37.287Z,101013.13
2019-01-19T12:37:33.029Z,101006.59
2019-01-19T12:40:01.319Z,101011.97
2019-01-19T12:46:09.117Z,101005.28
2019-01-19T12:48:37.426Z,101004.18
2019-01-19T12:56:50.738Z,100996.30
2019-01-19T12:59:19.050Z,100982.22
2019-01-19T13:02:06.736Z,100982.76
2019-01-19T13:04:35.078Z,100977.67
2019-01-19T13:07:43.668Z,100970.32
2019-01-19T13:10:52.082Z,100968.77
2019-01-19T13:14:03.428Z,100960.33
2019-01-19T13:17:10.529Z,100961.70
2019-01-19T13:20:18.915Z,100945.75
2019-01-19T13:23:27.316Z,100944.92
2019-01-19T13:26:35.630Z,100936.00
2019-01-19T13:29:42.659Z,100939.36
2019-01-19T13:32:51.036Z,100930.16
2019-01-19T13:35:58.056Z,100925.14
2019-01-19T13:39:06.702Z,100930.05
2019-01-19T13:45:48.861Z,100922.83
2019-01-19T13:48:55.891Z,100914.39
2019-01-19T13:52:04.228Z,100915.51
2019-01-19T13:55:12.605Z,100917.28
2019-01-19T13:58:20.950Z,100914.75
2019-01-19T14:01:27.966Z,100904.83
2019-01-19T14:07:27.482Z,100901.41
2019-01-19T14:10:35.806Z,100901.11
2019-01-19T14:13:43.067Z,100896.56
2019-01-19T14:16:51.637Z,100903.42
2019-01-19T14:19:58.669Z,100901.48
2019-01-19T14:23:07.313Z,100902.52
2019-01-19T14:26:15.722Z,100894.73
2019-01-19T14:29:24.136Z,100894.91
2019-01-19T14:32:31.146Z,100898.22
2019-01-19T14:35:39.548Z,100885.98
2019-01-19T14:38:28.991Z,100885.98
2019-01-19T14:41:39.238Z,100885.16
2019-01-19T14:44:47.614Z,100878.84
2019-01-19T14:47:56.226Z,100882.25
2019-01-19T14:51:03.224Z,100877.31
2019-01-19T14:54:11.562Z,100877.50
2019-01-19T14:57:19.938Z,100879.18
2019-01-19T15:00:27.216Z,100879.44
2019-01-19T15:03:35.584Z,100883.14
2019-01-19T15:06:42.599Z,100874.70
2019-01-19T15:09:50.935Z,100872.47
2019-01-19T15:12:59.280Z,100868.78
2019-01-19T15:16:07.621Z,100871.16
2019-01-19T15:19:14.891Z,100867.37
2019-01-19T15:22:23.230Z,100867.84
2019-01-19T15:25:31.618Z,100866.80
2019-01-19T15:28:38.651Z,100870.80
2019-01-19T15:31:47.042Z,100870.42
2019-01-19T15:34:55.389Z,100862.80
2019-01-19T15:38:03.784Z,100859.33
2019-01-19T15:41:10.811Z,100861.83
2019-01-19T15:44:19.197Z,100862.25
2019-01-19T15:47:26.233Z,100854.56
2019-01-19T15:50:34.560Z,100851.84
2019-01-19T15:53:42.955Z,100849.89
2019-01-19T15:56:51.345Z,100842.91
2019-01-19T15:59:58.370Z,100845.02
2019-01-19T16:03:05.453Z,100844.75
2019-01-19T16:06:13.804Z,100843.89
2019-01-19T16:09:20.843Z,100845.55
2019-01-19T16:12:29.226Z,100847.48
2019-01-19T16:22:36.965Z,100850.27
2019-01-19T16:28:33.027Z,100846.72
2019-01-19T16:31:41.425Z,100836.78
2019-01-19T16:34:30.633Z,100840.63
2019-01-19T16:37:37.915Z,100840.48
2019-01-19T16:40:27.106Z,100839.45
2019-01-19T16:43:35.478Z,100845.93
2019-01-19T16:47:00.084Z,100840.45
2019-01-19T17:05:14.342Z,100840.42
2019-01-19T17:08:22.877Z,100833.41
2019-01-19T17:11:29.883Z,100833.31
2019-01-19T17:14:38.535Z,100833.41
2019-01-19T17:17:27.734Z,100830.83
2019-01-19T17:20:35.020Z,100820.98
2019-01-19T17:23:43.594Z,100829.63
2019-01-19T17:30:21.541Z,100821.45
2019-01-19T17:33:28.570Z,100825.23
2019-01-19T17:39:24.120Z,100820.83
2019-01-19T17:42:31.130Z,100827.53
2019-01-19T17:45:38.156Z,100823.06
2019-01-19T17:48:46.494Z,100826.64
2019-01-19T17:51:34.046Z,100825.45
2019-01-19T17:57:52.108Z,100821.47
2019-01-19T18:00:59.378Z,100822.55
2019-01-19T18:04:07.698Z,100821.09
2019-01-19T18:10:45.210Z,100818.15
2019-01-19T18:13:53.808Z,100820.59
2019-01-19T18:20:28.191Z,100814.89
2019-01-19T18:23:36.572Z,100821.52
2019-01-19T18:26:25.799Z,100817.63
2019-01-19T18:29:34.126Z,100814.89
2019-01-19T18:35:53.225Z,100820.16
2019-01-19T18:42:29.167Z,100812.64
2019-01-19T18:45:37.570Z,100813.31
2019-01-19T18:51:55.912Z,100818.03
2019-01-19T18:55:02.918Z,100819.10
2019-01-19T18:58:09.951Z,100815.23
2019-01-19T19:01:17.246Z,100813.34
2019-01-19T19:04:24.499Z,100821.41
2019-01-19T19:07:31.780Z,100816.84
2019-01-19T19:10:38.799Z,100818.66
2019-01-19T19:13:47.214Z,100818.06
2019-01-19T19:16:54.226Z,100817.38
2019-01-19T19:20:02.599Z,100817.14
2019-01-19T19:23:10.949Z,100824.13
2019-01-19T19:26:19.308Z,100817.66
2019-01-19T19:29:27.645Z,100823.61
2019-01-19T19:32:34.672Z,100823.09
2019-01-19T19:35:43.006Z,100819.20
2019-01-19T19:38:51.419Z,100828.70
2019-01-19T19:41:40.913Z,100819.71
2019-01-19T19:44:47.935Z,100818.88
2019-01-19T19:47:56.262Z,100820.17
2019-01-19T19:51:03.281Z,100820.72
2019-01-19T19:53:31.582Z,100821.47
2019-01-19T19:55:58.858Z,100817.44
2019-01-19T19:58:27.500Z,100821.93
2019-01-19T20:00:55.817Z,100819.58
2019-01-19T20:03:24.455Z,100817.80
2019-01-19T20:06:12.122Z,100820.02
2019-01-19T20:08:59.819Z,100827.77
2019-01-19T20:11:28.123Z,100829.16
2019-01-19T20:13:56.429Z,100828.98
2019-01-19T20:16:44.408Z,100824.94
2019-01-19T20:22:11.027Z,100825.95
2019-01-19T20:24:58.436Z,100828.22
2019-01-19T20:27:26.760Z,100824.80
2019-01-19T20:29:55.318Z,100825.48
2019-01-19T20:32:43.001Z,100829.73
2019-01-19T20:35:30.947Z,100827.93
2019-01-19T20:37:59.541Z,100829.65
2019-01-19T20:40:27.838Z,100820.23
2019-01-19T20:43:15.612Z,100825.23
2019-01-19T20:46:03.360Z,100826.70
2019-01-19T20:51:07.184Z,100825.14
2019-01-19T20:53:35.427Z,100822.19
2019-01-19T20:58:58.251Z,100823.62
2019-01-19T21:01:26.578Z,100825.05
2019-01-19T21:06:59.607Z,100824.91
2019-01-19T21:09:27.915Z,100826.80
2019-01-19T21:11:56.243Z,100827.83
2019-01-19T21:14:24.544Z,100820.77
2019-01-19T21:17:12.194Z,100821.28
2019-01-19T21:22:27.843Z,100823.45
2019-01-19T21:28:02.833Z,100826.61
2019-01-19T21:30:31.128Z,100829.64
2019-01-19T21:33:18.817Z,100831.69
2019-01-19T21:35:47.102Z,100828.78
2019-01-19T21:38:34.549Z,100836.16
2019-01-19T21:41:02.861Z,100833.11
2019-01-19T21:43:31.148Z,100829.84
2019-01-19T21:46:18.587Z,100830.37
2019-01-19T21:51:34.514Z,100829.12
2019-01-19T21:54:02.804Z,100828.38
2019-01-19T21:56:31.137Z,100824.46
2019-01-19T21:58:59.426Z,100820.08
2019-01-19T22:01:28.030Z,100823.63
2019-01-19T22:03:56.615Z,100825.62
2019-01-19T22:06:44.272Z,100826.64
2019-01-19T22:09:12.565Z,100836.75
2019-01-19T22:11:40.873Z,100829.52
2019-01-19T22:14:09.472Z,100830.33
2019-01-19T22:16:38.037Z,100826.08
2019-01-19T22:19:06.357Z,100832.20
2019-01-19T22:21:54.012Z,100834.41
2019-01-19T22:24:22.648Z,100829.76
2019-01-19T22:32:15.334Z,100842.50
2019-01-19T22:35:03.277Z,100839.33
2019-01-19T22:37:31.585Z,100839.33
2019-01-19T22:40:00.262Z,100836.83
2019-01-19T22:42:28.566Z,100837.80
2019-01-19T22:44:56.854Z,100837.02
2019-01-19T22:47:25.486Z,100841.21
2019-01-19T22:49:54.061Z,100839.47
2019-01-19T22:52:41.754Z,100832.64
2019-01-19T22:55:30.967Z,100833.50
2019-01-19T22:57:59.278Z,100834.14
2019-01-19T23:01:07.657Z,100830.99
2019-01-19T23:03:55.431Z,100831.16
2019-01-19T23:06:43.102Z,100827.59
2019-01-19T23:19:33.866Z,100829.25
2019-01-19T23:22:02.471Z,100828.55
2019-01-19T23:27:18.098Z,100827.96
2019-01-19T23:30:06.014Z,100826.92
2019-01-19T23:32:53.711Z,100826.34
2019-01-19T23:35:41.135Z,100837.81
2019-01-19T23:38:09.458Z,100824.00
2019-01-19T23:40:38.023Z,100826.74
2019-01-19T23:43:25.963Z,100827.37
2019-01-19T23:48:41.614Z,100826.42
2019-01-19T23:51:09.911Z,100831.00
2019-01-19T23:53:38.210Z,100826.72
2019-01-19T23:58:40.390Z,100826.87
